Terminal Aerodrome Forecast
Issued by NWS

Home | Current Version | Previous Version | Text Only | Print | Product List | Glossary On
Versions: 1 2 3 4 5 6 7 8 9 10 11 12 13 14 15 16 17 18 19 20 21 22 23
000
FTUS45 KGGW 060520
TAFGDV
TAF
KGDV 060520Z 0606/0706 10013G22KT P6SM SCT100 WS020/14040KT
     FM061500 14017G26KT P6SM BKN050 WS020/14040KT
     FM062100 12025G35KT 6SM -RA BKN030 PROB30 0621/0624 4SM TSRA
      OVC020CB
     FM070000 13016G25KT 6SM -TSRA OVC025CB PROB30 0700/0703 4SM
      TSRA OVC020CB=

USA.gov is the U.S. government's official web portal to all federal, state and local government web resources and services.